Flight Briefing for CPX407

Departure Arrival
Chicago/Rockford International Airport (KRFD)
Click to view FAA NOTAMS
Nashville International Airport (KBNA)
Click to view FAA NOTAMS
Departure Time Arrival Time
N/A N/A
Aircraft Distance
B757-200SF 381nm
Departure METAR Arrival METAR
KRFD 152154Z 32009KT 10SM BKN250 M09/M16 A2999 RMK AO2 SLP172 T10941156 KBNA 152153Z 35007KT 330V040 5SM -RA OVC022 05/01 A2991 RMK AO2 SLP130 P0003 T00500011
Suggested Route
JOT GUIDO J73 PXV GUMMA RYYMN2


View recent IFR Routes data
Notes



Charts and Procedures

Charts for KRFD
No chart available
Charts for KBNA
No chart available

Ventusky Weather